sensor_id;sensor_type;location;lat;lon;timestamp;P1;durP1;ratioP1;P2;durP2;ratioP2
2039;SDS011;1025;42.686;23.350;2023-02-19T00:01:11;6.10;;;5.30;;
2039;SDS011;1025;42.686;23.350;2023-02-19T00:03:38;11.40;;;6.17;;
2039;SDS011;1025;42.686;23.350;2023-02-19T00:06:06;6.07;;;5.57;;
2039;SDS011;1025;42.686;23.350;2023-02-19T00:08:33;10.73;;;6.77;;
2039;SDS011;1025;42.686;23.350;2023-02-19T00:11:00;5.17;;;4.83;;
2039;SDS011;1025;42.686;23.350;2023-02-19T00:13:27;5.13;;;4.60;;
2039;SDS011;1025;42.686;23.350;2023-02-19T00:15:55;5.43;;;5.13;;
2039;SDS011;1025;42.686;23.350;2023-02-19T00:18:21;9.43;;;8.73;;
2039;SDS011;1025;42.686;23.350;2023-02-19T00:20:48;4.17;;;3.87;;
2039;SDS011;1025;42.686;23.350;2023-02-19T00:23:14;10.80;;;5.63;;
2039;SDS011;1025;42.686;23.350;2023-02-19T00:25:41;5.83;;;4.90;;
2039;SDS011;1025;42.686;23.350;2023-02-19T00:28:07;5.20;;;4.90;;
2039;SDS011;1025;42.686;23.350;2023-02-19T00:30:34;6.97;;;6.37;;
2039;SDS011;1025;42.686;23.350;2023-02-19T00:33:02;5.87;;;5.37;;
2039;SDS011;1025;42.686;23.350;2023-02-19T00:35:28;6.00;;;5.60;;
2039;SDS011;1025;42.686;23.350;2023-02-19T00:37:55;7.07;;;5.73;;
2039;SDS011;1025;42.686;23.350;2023-02-19T00:40:21;5.50;;;4.83;;
2039;SDS011;1025;42.686;23.350;2023-02-19T00:42:50;5.00;;;4.50;;
2039;SDS011;1025;42.686;23.350;2023-02-19T00:45:16;4.47;;;4.17;;
2039;SDS011;1025;42.686;23.350;2023-02-19T00:47:43;5.17;;;4.73;;
2039;SDS011;1025;42.686;23.350;2023-02-19T00:50:11;5.20;;;4.73;;
2039;SDS011;1025;42.686;23.350;2023-02-19T00:52:38;6.30;;;5.70;;
2039;SDS011;1025;42.686;23.350;2023-02-19T00:55:05;6.97;;;5.57;;
2039;SDS011;1025;42.686;23.350;2023-02-19T00:57:31;5.53;;;5.20;;
2039;SDS011;1025;42.686;23.350;2023-02-19T00:59:58;4.20;;;3.90;;
2039;SDS011;1025;42.686;23.350;2023-02-19T01:02:25;4.93;;;4.63;;
2039;SDS011;1025;42.686;23.350;2023-02-19T01:04:51;5.17;;;4.77;;
2039;SDS011;1025;42.686;23.350;2023-02-19T01:07:20;6.03;;;5.63;;
2039;SDS011;1025;42.686;23.350;2023-02-19T01:09:46;5.63;;;5.27;;
2039;SDS011;1025;42.686;23.350;2023-02-19T01:12:13;5.13;;;4.83;;
2039;SDS011;1025;42.686;23.350;2023-02-19T01:14:39;6.43;;;5.90;;
2039;SDS011;1025;42.686;23.350;2023-02-19T01:17:06;5.50;;;5.10;;
2039;SDS011;1025;42.686;23.350;2023-02-19T01:19:32;5.13;;;4.63;;
2039;SDS011;1025;42.686;23.350;2023-02-19T01:21:59;5.90;;;5.50;;
2039;SDS011;1025;42.686;23.350;2023-02-19T01:24:27;5.90;;;4.73;;
2039;SDS011;1025;42.686;23.350;2023-02-19T01:26:53;5.10;;;4.60;;
2039;SDS011;1025;42.686;23.350;2023-02-19T01:29:20;5.47;;;5.07;;
2039;SDS011;1025;42.686;23.350;2023-02-19T01:31:46;5.50;;;5.00;;
2039;SDS011;1025;42.686;23.350;2023-02-19T01:34:13;53.00;;;8.67;;
2039;SDS011;1025;42.686;23.350;2023-02-19T01:36:40;5.10;;;4.80;;
2039;SDS011;1025;42.686;23.350;2023-02-19T01:39:06;7.97;;;5.00;;
2039;SDS011;1025;42.686;23.350;2023-02-19T01:41:36;5.53;;;5.03;;
2039;SDS011;1025;42.686;23.350;2023-02-19T01:44:04;5.33;;;5.03;;
2039;SDS011;1025;42.686;23.350;2023-02-19T01:46:33;6.87;;;5.77;;
2039;SDS011;1025;42.686;23.350;2023-02-19T01:49:01;8.27;;;5.77;;
2039;SDS011;1025;42.686;23.350;2023-02-19T01:51:28;6.50;;;5.90;;
2039;SDS011;1025;42.686;23.350;2023-02-19T01:53:56;6.60;;;5.87;;
2039;SDS011;1025;42.686;23.350;2023-02-19T01:56:24;5.47;;;5.03;;
2039;SDS011;1025;42.686;23.350;2023-02-19T01:58:52;5.87;;;5.37;;
2039;SDS011;1025;42.686;23.350;2023-02-19T02:01:19;5.07;;;4.70;;
2039;SDS011;1025;42.686;23.350;2023-02-19T02:03:46;6.20;;;5.70;;
2039;SDS011;1025;42.686;23.350;2023-02-19T02:06:14;7.20;;;5.73;;
2039;SDS011;1025;42.686;23.350;2023-02-19T02:08:43;6.77;;;6.27;;
2039;SDS011;1025;42.686;23.350;2023-02-19T02:11:27;4.83;;;4.63;;
2039;SDS011;1025;42.686;23.350;2023-02-19T02:13:55;5.47;;;5.10;;
2039;SDS011;1025;42.686;23.350;2023-02-19T02:16:23;5.90;;;5.33;;
2039;SDS011;1025;42.686;23.350;2023-02-19T02:18:53;9.53;;;6.80;;
2039;SDS011;1025;42.686;23.350;2023-02-19T02:21:29;6.83;;;6.33;;
2039;SDS011;1025;42.686;23.350;2023-02-19T02:24:03;6.70;;;6.10;;
2039;SDS011;1025;42.686;23.350;2023-02-19T02:26:34;5.30;;;5.00;;
2039;SDS011;1025;42.686;23.350;2023-02-19T02:31:56;6.10;;;5.60;;
2039;SDS011;1025;42.686;23.350;2023-02-19T02:34:24;6.50;;;5.90;;
2039;SDS011;1025;42.686;23.350;2023-02-19T02:36:53;5.07;;;4.67;;
2039;SDS011;1025;42.686;23.350;2023-02-19T02:39:21;5.93;;;5.43;;
2039;SDS011;1025;42.686;23.350;2023-02-19T02:41:49;7.00;;;6.30;;
2039;SDS011;1025;42.686;23.350;2023-02-19T02:44:40;5.90;;;5.50;;
2039;SDS011;1025;42.686;23.350;2023-02-19T02:47:28;6.53;;;6.03;;
2039;SDS011;1025;42.686;23.350;2023-02-19T02:50:06;10.07;;;7.23;;
2039;SDS011;1025;42.686;23.350;2023-02-19T02:52:35;4.27;;;4.07;;
2039;SDS011;1025;42.686;23.350;2023-02-19T02:55:20;6.00;;;5.50;;
2039;SDS011;1025;42.686;23.350;2023-02-19T02:57:47;5.23;;;4.87;;
2039;SDS011;1025;42.686;23.350;2023-02-19T03:00:14;8.40;;;6.67;;
2039;SDS011;1025;42.686;23.350;2023-02-19T03:02:42;5.37;;;4.97;;
2039;SDS011;1025;42.686;23.350;2023-02-19T03:05:08;6.43;;;5.93;;
2039;SDS011;1025;42.686;23.350;2023-02-19T03:07:56;6.50;;;5.90;;
2039;SDS011;1025;42.686;23.350;2023-02-19T03:10:26;6.53;;;6.03;;
2039;SDS011;1025;42.686;23.350;2023-02-19T03:12:54;6.97;;;5.80;;
2039;SDS011;1025;42.686;23.350;2023-02-19T03:15:39;8.13;;;6.97;;
2039;SDS011;1025;42.686;23.350;2023-02-19T03:18:25;9.37;;;6.30;;
2039;SDS011;1025;42.686;23.350;2023-02-19T03:21:11;5.90;;;5.50;;
2039;SDS011;1025;42.686;23.350;2023-02-19T03:23:41;7.00;;;6.50;;
2039;SDS011;1025;42.686;23.350;2023-02-19T03:26:25;6.93;;;6.43;;
2039;SDS011;1025;42.686;23.350;2023-02-19T03:28:53;6.37;;;5.90;;
2039;SDS011;1025;42.686;23.350;2023-02-19T03:31:37;7.67;;;6.77;;
2039;SDS011;1025;42.686;23.350;2023-02-19T03:34:07;6.37;;;5.83;;
2039;SDS011;1025;42.686;23.350;2023-02-19T03:36:36;9.13;;;6.60;;
2039;SDS011;1025;42.686;23.350;2023-02-19T03:39:06;6.87;;;6.37;;
2039;SDS011;1025;42.686;23.350;2023-02-19T03:41:34;5.40;;;5.10;;
2039;SDS011;1025;42.686;23.350;2023-02-19T03:44:05;6.60;;;6.03;;
2039;SDS011;1025;42.686;23.350;2023-02-19T03:46:33;6.90;;;6.37;;
2039;SDS011;1025;42.686;23.350;2023-02-19T03:49:02;7.20;;;6.23;;
2039;SDS011;1025;42.686;23.350;2023-02-19T03:51:33;7.20;;;6.67;;
2039;SDS011;1025;42.686;23.350;2023-02-19T03:54:06;6.70;;;6.17;;
2039;SDS011;1025;42.686;23.350;2023-02-19T03:56:37;7.33;;;6.63;;
2039;SDS011;1025;42.686;23.350;2023-02-19T03:59:07;7.40;;;6.80;;
2039;SDS011;1025;42.686;23.350;2023-02-19T04:01:36;7.93;;;7.33;;
2039;SDS011;1025;42.686;23.350;2023-02-19T04:04:05;8.70;;;7.70;;
2039;SDS011;1025;42.686;23.350;2023-02-19T04:06:35;7.27;;;6.70;;
2039;SDS011;1025;42.686;23.350;2023-02-19T04:09:05;8.30;;;7.60;;
2039;SDS011;1025;42.686;23.350;2023-02-19T04:11:33;8.63;;;7.27;;
2039;SDS011;1025;42.686;23.350;2023-02-19T04:14:01;10.33;;;9.00;;
2039;SDS011;1025;42.686;23.350;2023-02-19T04:16:30;9.87;;;8.80;;
2039;SDS011;1025;42.686;23.350;2023-02-19T04:18:59;10.87;;;8.40;;
2039;SDS011;1025;42.686;23.350;2023-02-19T04:21:27;10.50;;;8.93;;
2039;SDS011;1025;42.686;23.350;2023-02-19T04:23:55;10.53;;;6.53;;
2039;SDS011;1025;42.686;23.350;2023-02-19T04:26:24;7.77;;;7.10;;
2039;SDS011;1025;42.686;23.350;2023-02-19T04:28:51;10.00;;;7.07;;
2039;SDS011;1025;42.686;23.350;2023-02-19T04:31:17;8.27;;;7.70;;
2039;SDS011;1025;42.686;23.350;2023-02-19T04:33:44;12.23;;;9.17;;
2039;SDS011;1025;42.686;23.350;2023-02-19T04:36:10;8.40;;;7.50;;
2039;SDS011;1025;42.686;23.350;2023-02-19T04:38:37;8.00;;;7.40;;
2039;SDS011;1025;42.686;23.350;2023-02-19T04:41:05;7.53;;;6.70;;
2039;SDS011;1025;42.686;23.350;2023-02-19T04:43:31;5.53;;;5.03;;
2039;SDS011;1025;42.686;23.350;2023-02-19T04:45:58;7.27;;;6.60;;
2039;SDS011;1025;42.686;23.350;2023-02-19T04:48:25;5.77;;;5.47;;
2039;SDS011;1025;42.686;23.350;2023-02-19T04:50:51;10.63;;;5.53;;
2039;SDS011;1025;42.686;23.350;2023-02-19T04:53:18;5.33;;;5.00;;
2039;SDS011;1025;42.686;23.350;2023-02-19T04:55:45;7.30;;;6.70;;
2039;SDS011;1025;42.686;23.350;2023-02-19T04:58:13;10.13;;;7.50;;
2039;SDS011;1025;42.686;23.350;2023-02-19T05:00:40;14.90;;;6.50;;
2039;SDS011;1025;42.686;23.350;2023-02-19T05:03:06;5.10;;;4.70;;
2039;SDS011;1025;42.686;23.350;2023-02-19T05:05:33;6.00;;;5.50;;
2039;SDS011;1025;42.686;23.350;2023-02-19T05:08:00;7.83;;;7.03;;
2039;SDS011;1025;42.686;23.350;2023-02-19T05:10:26;5.10;;;4.80;;
2039;SDS011;1025;42.686;23.350;2023-02-19T05:12:53;4.60;;;4.40;;
2039;SDS011;1025;42.686;23.350;2023-02-19T05:15:21;6.80;;;6.30;;
2039;SDS011;1025;42.686;23.350;2023-02-19T05:17:47;6.30;;;5.70;;
2039;SDS011;1025;42.686;23.350;2023-02-19T05:20:14;6.50;;;5.90;;
2039;SDS011;1025;42.686;23.350;2023-02-19T05:22:40;7.20;;;6.60;;
2039;SDS011;1025;42.686;23.350;2023-02-19T05:25:07;5.47;;;5.07;;
2039;SDS011;1025;42.686;23.350;2023-02-19T05:27:34;7.27;;;6.63;;
2039;SDS011;1025;42.686;23.350;2023-02-19T05:30:00;13.10;;;7.10;;
2039;SDS011;1025;42.686;23.350;2023-02-19T05:32:28;6.93;;;6.37;;
2039;SDS011;1025;42.686;23.350;2023-02-19T05:34:55;6.53;;;5.87;;
2039;SDS011;1025;42.686;23.350;2023-02-19T05:37:21;7.70;;;7.10;;
2039;SDS011;1025;42.686;23.350;2023-02-19T05:39:48;7.50;;;6.90;;
2039;SDS011;1025;42.686;23.350;2023-02-19T05:42:15;7.37;;;6.00;;
2039;SDS011;1025;42.686;23.350;2023-02-19T05:44:42;5.90;;;5.40;;
2039;SDS011;1025;42.686;23.350;2023-02-19T05:47:16;7.93;;;5.10;;
2039;SDS011;1025;42.686;23.350;2023-02-19T05:49:44;7.03;;;6.30;;
2039;SDS011;1025;42.686;23.350;2023-02-19T05:52:11;5.03;;;4.73;;
2039;SDS011;1025;42.686;23.350;2023-02-19T05:54:38;6.40;;;5.50;;
2039;SDS011;1025;42.686;23.350;2023-02-19T05:57:05;8.97;;;6.90;;
2039;SDS011;1025;42.686;23.350;2023-02-19T05:59:31;5.80;;;5.40;;
2039;SDS011;1025;42.686;23.350;2023-02-19T06:01:58;12.10;;;6.47;;
2039;SDS011;1025;42.686;23.350;2023-02-19T06:04:24;7.97;;;7.10;;
2039;SDS011;1025;42.686;23.350;2023-02-19T06:06:52;9.07;;;6.20;;
2039;SDS011;1025;42.686;23.350;2023-02-19T06:09:19;8.70;;;6.07;;
2039;SDS011;1025;42.686;23.350;2023-02-19T06:11:46;10.63;;;6.87;;
2039;SDS011;1025;42.686;23.350;2023-02-19T06:14:12;12.73;;;8.60;;
2039;SDS011;1025;42.686;23.350;2023-02-19T06:16:39;8.10;;;7.43;;
2039;SDS011;1025;42.686;23.350;2023-02-19T06:19:06;6.63;;;6.03;;
2039;SDS011;1025;42.686;23.350;2023-02-19T06:21:32;7.30;;;6.40;;
2039;SDS011;1025;42.686;23.350;2023-02-19T06:24:04;9.67;;;8.13;;
2039;SDS011;1025;42.686;23.350;2023-02-19T06:26:31;7.17;;;6.53;;
2039;SDS011;1025;42.686;23.350;2023-02-19T06:28:57;11.93;;;7.63;;
2039;SDS011;1025;42.686;23.350;2023-02-19T06:31:24;9.60;;;7.70;;
2039;SDS011;1025;42.686;23.350;2023-02-19T06:33:50;6.77;;;6.07;;
2039;SDS011;1025;42.686;23.350;2023-02-19T06:36:19;9.10;;;7.50;;
2039;SDS011;1025;42.686;23.350;2023-02-19T06:38:46;17.23;;;7.63;;
2039;SDS011;1025;42.686;23.350;2023-02-19T06:41:14;6.87;;;6.47;;
2039;SDS011;1025;42.686;23.350;2023-02-19T06:43:40;18.97;;;6.73;;
2039;SDS011;1025;42.686;23.350;2023-02-19T06:46:07;9.90;;;6.43;;
2039;SDS011;1025;42.686;23.350;2023-02-19T06:48:34;10.30;;;7.60;;
2039;SDS011;1025;42.686;23.350;2023-02-19T06:51:00;6.87;;;6.17;;
2039;SDS011;1025;42.686;23.350;2023-02-19T06:53:27;5.43;;;4.93;;
2039;SDS011;1025;42.686;23.350;2023-02-19T06:55:54;7.17;;;6.67;;
2039;SDS011;1025;42.686;23.350;2023-02-19T06:58:22;5.73;;;5.43;;
2039;SDS011;1025;42.686;23.350;2023-02-19T07:00:49;16.90;;;7.33;;
2039;SDS011;1025;42.686;23.350;2023-02-19T07:03:15;11.73;;;7.47;;
2039;SDS011;1025;42.686;23.350;2023-02-19T07:05:42;15.57;;;6.33;;
2039;SDS011;1025;42.686;23.350;2023-02-19T07:08:08;5.23;;;4.83;;
2039;SDS011;1025;42.686;23.350;2023-02-19T07:10:35;7.30;;;5.23;;
2039;SDS011;1025;42.686;23.350;2023-02-19T07:13:01;24.93;;;5.50;;
2039;SDS011;1025;42.686;23.350;2023-02-19T07:15:29;6.37;;;5.80;;
2039;SDS011;1025;42.686;23.350;2023-02-19T07:17:56;12.70;;;5.40;;
2039;SDS011;1025;42.686;23.350;2023-02-19T07:20:22;4.70;;;3.37;;
2039;SDS011;1025;42.686;23.350;2023-02-19T07:22:49;5.90;;;4.60;;
2039;SDS011;1025;42.686;23.350;2023-02-19T07:25:15;5.47;;;4.90;;
2039;SDS011;1025;42.686;23.350;2023-02-19T07:27:42;9.17;;;4.37;;
2039;SDS011;1025;42.686;23.350;2023-02-19T07:30:09;4.63;;;3.40;;
2039;SDS011;1025;42.686;23.350;2023-02-19T07:32:40;4.73;;;4.10;;
2039;SDS011;1025;42.686;23.350;2023-02-19T07:35:07;3.70;;;3.50;;
2039;SDS011;1025;42.686;23.350;2023-02-19T07:37:33;4.73;;;2.97;;
2039;SDS011;1025;42.686;23.350;2023-02-19T07:40:00;15.37;;;4.27;;
2039;SDS011;1025;42.686;23.350;2023-02-19T07:42:26;4.80;;;4.40;;
2039;SDS011;1025;42.686;23.350;2023-02-19T07:44:53;4.73;;;4.30;;
2039;SDS011;1025;42.686;23.350;2023-02-19T07:47:19;4.17;;;3.83;;
2039;SDS011;1025;42.686;23.350;2023-02-19T07:49:47;6.07;;;4.60;;
2039;SDS011;1025;42.686;23.350;2023-02-19T07:52:14;4.87;;;4.40;;
2039;SDS011;1025;42.686;23.350;2023-02-19T07:54:40;15.33;;;3.93;;
2039;SDS011;1025;42.686;23.350;2023-02-19T07:57:07;5.27;;;4.50;;
2039;SDS011;1025;42.686;23.350;2023-02-19T07:59:33;21.17;;;5.03;;
2039;SDS011;1025;42.686;23.350;2023-02-19T08:02:00;4.60;;;4.20;;
2039;SDS011;1025;42.686;23.350;2023-02-19T08:04:45;4.63;;;3.07;;
2039;SDS011;1025;42.686;23.350;2023-02-19T08:07:14;9.27;;;5.50;;
2039;SDS011;1025;42.686;23.350;2023-02-19T08:09:40;9.10;;;3.57;;
2039;SDS011;1025;42.686;23.350;2023-02-19T08:12:07;3.97;;;3.73;;
2039;SDS011;1025;42.686;23.350;2023-02-19T08:14:52;3.77;;;2.97;;
2039;SDS011;1025;42.686;23.350;2023-02-19T08:17:18;3.20;;;3.00;;
2039;SDS011;1025;42.686;23.350;2023-02-19T08:19:45;3.90;;;2.10;;
2039;SDS011;1025;42.686;23.350;2023-02-19T08:22:11;3.67;;;3.30;;
2039;SDS011;1025;42.686;23.350;2023-02-19T08:24:41;4.53;;;3.80;;
2039;SDS011;1025;42.686;23.350;2023-02-19T08:27:09;5.70;;;2.70;;
2039;SDS011;1025;42.686;23.350;2023-02-19T08:29:35;6.60;;;3.67;;
2039;SDS011;1025;42.686;23.350;2023-02-19T08:32:02;3.10;;;3.00;;
2039;SDS011;1025;42.686;23.350;2023-02-19T08:34:28;13.40;;;3.73;;
2039;SDS011;1025;42.686;23.350;2023-02-19T08:36:55;3.30;;;3.10;;
2039;SDS011;1025;42.686;23.350;2023-02-19T08:39:21;2.77;;;2.60;;
2039;SDS011;1025;42.686;23.350;2023-02-19T08:41:49;2.53;;;2.33;;
2039;SDS011;1025;42.686;23.350;2023-02-19T08:44:16;2.70;;;2.53;;
2039;SDS011;1025;42.686;23.350;2023-02-19T08:46:42;5.90;;;4.10;;
2039;SDS011;1025;42.686;23.350;2023-02-19T08:49:09;3.03;;;2.83;;
2039;SDS011;1025;42.686;23.350;2023-02-19T08:51:35;3.23;;;3.03;;
2039;SDS011;1025;42.686;23.350;2023-02-19T08:54:02;3.30;;;3.17;;
2039;SDS011;1025;42.686;23.350;2023-02-19T08:56:29;3.77;;;3.57;;
2039;SDS011;1025;42.686;23.350;2023-02-19T08:58:57;5.83;;;3.23;;
2039;SDS011;1025;42.686;23.350;2023-02-19T09:01:23;3.43;;;3.20;;
2039;SDS011;1025;42.686;23.350;2023-02-19T09:03:50;6.60;;;2.37;;
2039;SDS011;1025;42.686;23.350;2023-02-19T09:06:17;4.23;;;3.50;;
2039;SDS011;1025;42.686;23.350;2023-02-19T09:08:44;2.63;;;2.53;;
2039;SDS011;1025;42.686;23.350;2023-02-19T09:11:10;2.90;;;2.60;;
2039;SDS011;1025;42.686;23.350;2023-02-19T09:13:37;4.60;;;3.80;;
2039;SDS011;1025;42.686;23.350;2023-02-19T09:16:05;2.50;;;2.20;;
2039;SDS011;1025;42.686;23.350;2023-02-19T09:18:32;3.80;;;2.53;;
2039;SDS011;1025;42.686;23.350;2023-02-19T09:20:59;2.93;;;2.27;;
2039;SDS011;1025;42.686;23.350;2023-02-19T09:23:25;2.03;;;1.93;;
2039;SDS011;1025;42.686;23.350;2023-02-19T09:25:55;4.03;;;2.60;;
2039;SDS011;1025;42.686;23.350;2023-02-19T09:28:22;2.63;;;2.20;;
2039;SDS011;1025;42.686;23.350;2023-02-19T09:30:49;2.83;;;2.53;;
2039;SDS011;1025;42.686;23.350;2023-02-19T09:33:17;2.43;;;2.27;;
2039;SDS011;1025;42.686;23.350;2023-02-19T09:35:43;2.50;;;2.40;;
2039;SDS011;1025;42.686;23.350;2023-02-19T09:38:09;1.73;;;1.63;;
2039;SDS011;1025;42.686;23.350;2023-02-19T09:40:36;1.80;;;1.70;;
2039;SDS011;1025;42.686;23.350;2023-02-19T09:43:05;1.17;;;1.17;;
2039;SDS011;1025;42.686;23.350;2023-02-19T09:45:31;2.40;;;2.30;;
2039;SDS011;1025;42.686;23.350;2023-02-19T09:47:59;5.40;;;2.83;;
2039;SDS011;1025;42.686;23.350;2023-02-19T09:50:30;2.83;;;2.20;;
2039;SDS011;1025;42.686;23.350;2023-02-19T09:52:59;2.00;;;1.90;;
2039;SDS011;1025;42.686;23.350;2023-02-19T09:55:29;3.53;;;3.20;;
2039;SDS011;1025;42.686;23.350;2023-02-19T09:57:56;2.30;;;2.20;;
2039;SDS011;1025;42.686;23.350;2023-02-19T10:00:25;3.10;;;2.87;;
2039;SDS011;1025;42.686;23.350;2023-02-19T10:02:52;2.70;;;2.40;;
2039;SDS011;1025;42.686;23.350;2023-02-19T10:05:19;2.33;;;2.23;;
2039;SDS011;1025;42.686;23.350;2023-02-19T10:07:50;3.43;;;3.17;;
2039;SDS011;1025;42.686;23.350;2023-02-19T10:10:19;2.10;;;2.00;;
2039;SDS011;1025;42.686;23.350;2023-02-19T10:12:48;3.30;;;3.07;;
2039;SDS011;1025;42.686;23.350;2023-02-19T10:15:16;2.50;;;2.30;;
2039;SDS011;1025;42.686;23.350;2023-02-19T10:17:44;4.13;;;3.00;;
2039;SDS011;1025;42.686;23.350;2023-02-19T10:20:11;2.17;;;2.07;;
2039;SDS011;1025;42.686;23.350;2023-02-19T10:22:38;1.30;;;1.30;;
2039;SDS011;1025;42.686;23.350;2023-02-19T10:25:06;2.20;;;2.10;;
2039;SDS011;1025;42.686;23.350;2023-02-19T10:27:33;3.23;;;3.03;;
2039;SDS011;1025;42.686;23.350;2023-02-19T10:29:59;3.33;;;2.30;;
2039;SDS011;1025;42.686;23.350;2023-02-19T10:32:26;3.37;;;3.17;;
2039;SDS011;1025;42.686;23.350;2023-02-19T10:35:07;2.73;;;2.60;;
2039;SDS011;1025;42.686;23.350;2023-02-19T10:37:34;2.60;;;2.50;;
2039;SDS011;1025;42.686;23.350;2023-02-19T10:40:01;3.33;;;3.10;;
2039;SDS011;1025;42.686;23.350;2023-02-19T10:42:30;2.67;;;2.57;;
2039;SDS011;1025;42.686;23.350;2023-02-19T10:44:57;2.17;;;1.77;;
2039;SDS011;1025;42.686;23.350;2023-02-19T10:47:26;3.33;;;2.83;;
2039;SDS011;1025;42.686;23.350;2023-02-19T10:49:54;2.13;;;2.03;;
2039;SDS011;1025;42.686;23.350;2023-02-19T10:52:22;3.50;;;2.30;;
2039;SDS011;1025;42.686;23.350;2023-02-19T10:54:51;2.87;;;2.60;;
2039;SDS011;1025;42.686;23.350;2023-02-19T10:57:27;1.60;;;1.53;;
2039;SDS011;1025;42.686;23.350;2023-02-19T11:00:01;2.77;;;2.67;;
2039;SDS011;1025;42.686;23.350;2023-02-19T11:02:28;1.90;;;1.80;;
2039;SDS011;1025;42.686;23.350;2023-02-19T11:05:02;2.87;;;2.73;;
2039;SDS011;1025;42.686;23.350;2023-02-19T11:07:29;2.60;;;2.50;;
2039;SDS011;1025;42.686;23.350;2023-02-19T11:09:56;3.50;;;3.30;;
2039;SDS011;1025;42.686;23.350;2023-02-19T11:12:23;3.37;;;2.77;;
2039;SDS011;1025;42.686;23.350;2023-02-19T11:14:50;3.30;;;2.70;;
2039;SDS011;1025;42.686;23.350;2023-02-19T11:17:21;2.43;;;2.27;;
2039;SDS011;1025;42.686;23.350;2023-02-19T11:19:49;7.57;;;3.30;;
2039;SDS011;1025;42.686;23.350;2023-02-19T11:22:17;2.53;;;2.43;;
2039;SDS011;1025;42.686;23.350;2023-02-19T11:24:46;1.97;;;1.87;;
2039;SDS011;1025;42.686;23.350;2023-02-19T11:27:15;5.97;;;3.83;;
2039;SDS011;1025;42.686;23.350;2023-02-19T11:29:43;2.70;;;2.53;;
2039;SDS011;1025;42.686;23.350;2023-02-19T11:32:23;2.33;;;2.07;;
2039;SDS011;1025;42.686;23.350;2023-02-19T11:34:50;2.03;;;1.83;;
2039;SDS011;1025;42.686;23.350;2023-02-19T11:37:17;2.80;;;2.70;;
2039;SDS011;1025;42.686;23.350;2023-02-19T11:39:45;2.30;;;2.20;;
2039;SDS011;1025;42.686;23.350;2023-02-19T11:45:05;2.50;;;2.30;;
2039;SDS011;1025;42.686;23.350;2023-02-19T11:47:52;2.90;;;1.60;;
2039;SDS011;1025;42.686;23.350;2023-02-19T11:50:23;2.33;;;2.13;;
2039;SDS011;1025;42.686;23.350;2023-02-19T11:52:55;2.20;;;2.10;;
2039;SDS011;1025;42.686;23.350;2023-02-19T11:55:33;3.10;;;3.00;;
2039;SDS011;1025;42.686;23.350;2023-02-19T11:58:04;6.60;;;2.67;;
2039;SDS011;1025;42.686;23.350;2023-02-19T12:00:35;2.70;;;2.50;;
2039;SDS011;1025;42.686;23.350;2023-02-19T12:03:13;2.40;;;2.30;;
2039;SDS011;1025;42.686;23.350;2023-02-19T12:05:47;2.97;;;2.70;;
2039;SDS011;1025;42.686;23.350;2023-02-19T12:08:21;2.03;;;1.93;;
2039;SDS011;1025;42.686;23.350;2023-02-19T12:11:01;2.90;;;2.70;;
2039;SDS011;1025;42.686;23.350;2023-02-19T12:13:32;2.10;;;2.00;;
2039;SDS011;1025;42.686;23.350;2023-02-19T12:18:56;2.90;;;2.70;;
2039;SDS011;1025;42.686;23.350;2023-02-19T12:21:27;2.30;;;2.20;;
2039;SDS011;1025;42.686;23.350;2023-02-19T12:24:09;2.23;;;2.10;;
2039;SDS011;1025;42.686;23.350;2023-02-19T12:26:40;12.70;;;2.30;;
2039;SDS011;1025;42.686;23.350;2023-02-19T12:29:15;4.03;;;2.70;;
2039;SDS011;1025;42.686;23.350;2023-02-19T12:31:51;3.10;;;2.90;;
2039;SDS011;1025;42.686;23.350;2023-02-19T12:34:34;1.80;;;1.70;;
2039;SDS011;1025;42.686;23.350;2023-02-19T12:37:08;3.70;;;2.93;;
2039;SDS011;1025;42.686;23.350;2023-02-19T12:39:41;2.17;;;2.07;;
2039;SDS011;1025;42.686;23.350;2023-02-19T12:42:14;3.67;;;2.03;;
2039;SDS011;1025;42.686;23.350;2023-02-19T12:44:45;6.37;;;3.47;;
2039;SDS011;1025;42.686;23.350;2023-02-19T12:47:14;3.07;;;2.77;;
2039;SDS011;1025;42.686;23.350;2023-02-19T12:49:44;2.73;;;2.53;;
2039;SDS011;1025;42.686;23.350;2023-02-19T12:52:15;1.67;;;1.57;;
2039;SDS011;1025;42.686;23.350;2023-02-19T12:54:44;1.63;;;1.53;;
2039;SDS011;1025;42.686;23.350;2023-02-19T12:57:12;1.40;;;1.40;;
2039;SDS011;1025;42.686;23.350;2023-02-19T12:59:41;2.37;;;2.23;;
2039;SDS011;1025;42.686;23.350;2023-02-19T13:02:12;2.50;;;2.40;;
2039;SDS011;1025;42.686;23.350;2023-02-19T13:04:41;2.37;;;2.27;;
2039;SDS011;1025;42.686;23.350;2023-02-19T13:07:11;2.70;;;2.50;;
2039;SDS011;1025;42.686;23.350;2023-02-19T13:09:40;3.63;;;3.30;;
2039;SDS011;1025;42.686;23.350;2023-02-19T13:12:10;3.13;;;2.77;;
2039;SDS011;1025;42.686;23.350;2023-02-19T13:14:39;1.70;;;1.60;;
2039;SDS011;1025;42.686;23.350;2023-02-19T13:17:13;2.23;;;2.13;;
2039;SDS011;1025;42.686;23.350;2023-02-19T13:19:43;2.50;;;2.00;;
2039;SDS011;1025;42.686;23.350;2023-02-19T13:22:14;3.87;;;3.50;;
2039;SDS011;1025;42.686;23.350;2023-02-19T13:25:01;1.30;;;1.30;;
2039;SDS011;1025;42.686;23.350;2023-02-19T13:27:41;2.47;;;2.37;;
2039;SDS011;1025;42.686;23.350;2023-02-19T13:30:14;2.43;;;2.20;;
2039;SDS011;1025;42.686;23.350;2023-02-19T13:32:54;2.23;;;1.93;;
2039;SDS011;1025;42.686;23.350;2023-02-19T13:35:25;6.80;;;3.87;;
2039;SDS011;1025;42.686;23.350;2023-02-19T13:37:54;2.27;;;1.97;;
2039;SDS011;1025;42.686;23.350;2023-02-19T13:40:26;1.77;;;1.67;;
2039;SDS011;1025;42.686;23.350;2023-02-19T13:42:56;1.63;;;1.63;;
2039;SDS011;1025;42.686;23.350;2023-02-19T13:45:24;1.70;;;1.60;;
2039;SDS011;1025;42.686;23.350;2023-02-19T13:47:58;2.37;;;2.20;;
2039;SDS011;1025;42.686;23.350;2023-02-19T13:50:25;1.77;;;1.70;;
2039;SDS011;1025;42.686;23.350;2023-02-19T13:52:52;3.10;;;2.97;;
2039;SDS011;1025;42.686;23.350;2023-02-19T14:00:52;2.30;;;2.20;;
2039;SDS011;1025;42.686;23.350;2023-02-19T14:03:25;2.50;;;2.40;;
2039;SDS011;1025;42.686;23.350;2023-02-19T14:05:56;1.70;;;1.60;;
2039;SDS011;1025;42.686;23.350;2023-02-19T14:11:05;2.43;;;2.33;;
2039;SDS011;1025;42.686;23.350;2023-02-19T14:16:29;2.77;;;2.60;;
2039;SDS011;1025;42.686;23.350;2023-02-19T14:18:56;2.97;;;2.80;;
2039;SDS011;1025;42.686;23.350;2023-02-19T14:21:23;2.40;;;2.20;;
2039;SDS011;1025;42.686;23.350;2023-02-19T14:23:50;1.77;;;1.70;;
2039;SDS011;1025;42.686;23.350;2023-02-19T14:26:18;2.03;;;1.93;;
2039;SDS011;1025;42.686;23.350;2023-02-19T14:28:45;2.43;;;2.33;;
2039;SDS011;1025;42.686;23.350;2023-02-19T14:31:23;2.10;;;2.00;;
2039;SDS011;1025;42.686;23.350;2023-02-19T14:33:53;2.27;;;2.17;;
2039;SDS011;1025;42.686;23.350;2023-02-19T14:39:02;2.80;;;2.60;;
2039;SDS011;1025;42.686;23.350;2023-02-19T14:41:31;2.83;;;2.60;;
2039;SDS011;1025;42.686;23.350;2023-02-19T14:43:58;2.00;;;1.90;;
2039;SDS011;1025;42.686;23.350;2023-02-19T14:46:27;3.33;;;2.60;;
2039;SDS011;1025;42.686;23.350;2023-02-19T14:48:57;2.80;;;2.33;;
2039;SDS011;1025;42.686;23.350;2023-02-19T14:51:27;3.20;;;2.60;;
2039;SDS011;1025;42.686;23.350;2023-02-19T14:53:54;2.97;;;2.87;;
2039;SDS011;1025;42.686;23.350;2023-02-19T14:56:22;2.57;;;2.37;;
2039;SDS011;1025;42.686;23.350;2023-02-19T14:59:20;2.40;;;2.30;;
2039;SDS011;1025;42.686;23.350;2023-02-19T15:01:52;3.47;;;3.27;;
2039;SDS011;1025;42.686;23.350;2023-02-19T15:04:21;4.10;;;3.80;;
2039;SDS011;1025;42.686;23.350;2023-02-19T15:06:48;5.60;;;3.77;;
2039;SDS011;1025;42.686;23.350;2023-02-19T15:09:17;8.93;;;3.50;;
2039;SDS011;1025;42.686;23.350;2023-02-19T15:11:45;3.63;;;3.33;;
2039;SDS011;1025;42.686;23.350;2023-02-19T15:14:18;5.13;;;3.00;;
2039;SDS011;1025;42.686;23.350;2023-02-19T15:16:45;2.93;;;2.73;;
2039;SDS011;1025;42.686;23.350;2023-02-19T15:19:12;2.60;;;2.50;;
2039;SDS011;1025;42.686;23.350;2023-02-19T15:21:42;4.80;;;3.20;;
2039;SDS011;1025;42.686;23.350;2023-02-19T15:24:10;3.37;;;3.10;;
2039;SDS011;1025;42.686;23.350;2023-02-19T15:26:38;4.13;;;3.80;;
2039;SDS011;1025;42.686;23.350;2023-02-19T15:29:08;3.80;;;3.33;;
2039;SDS011;1025;42.686;23.350;2023-02-19T15:31:35;3.50;;;3.30;;
2039;SDS011;1025;42.686;23.350;2023-02-19T15:34:01;5.93;;;5.33;;